Time;durP1;ratioP1;P1;durP2;ratioP2;P2;SDS_P1;SDS_P2;PMS_P1;PMS_P2;Temp;Humidity;BMP_temperature;BMP_pressure;BME280_temperature;BME280_humidity;BME280_pressure;Samples;Min_cycle;Max_cycle;Signal;HPM_P1;HPM_P2
2024/01/26 00:02:04;;;;;;;46.50;30.77;;;10.70;99.90;;;;;;5073742;28;20360;-75
2024/01/26 00:04:30;;;;;;;45.80;29.75;;;10.70;99.90;;;;;;5073854;28;20362;-75
2024/01/26 00:06:56;;;;;;;50.17;31.15;;;10.70;99.90;;;;;;5072543;28;20439;-75
2024/01/26 00:09:22;;;;;;;43.45;31.13;;;10.70;99.90;;;;;;5054299;28;20037;-75
2024/01/26 00:11:47;;;;;;;47.35;30.70;;;10.70;99.90;;;;;;5076215;28;20032;-75
2024/01/26 00:14:13;;;;;;;45.90;29.60;;;10.70;99.90;;;;;;5073594;28;20028;-74
2024/01/26 00:16:39;;;;;;;43.75;30.80;;;10.70;99.90;;;;;;5073433;28;20033;-74
2024/01/26 00:19:05;;;;;;;44.95;30.35;;;10.70;99.90;;;;;;5075173;28;20053;-75
2024/01/26 00:21:32;;;;;;;48.15;31.08;;;10.70;99.90;;;;;;5073412;28;20033;-74
2024/01/26 00:23:57;;;;;;;43.30;30.67;;;10.70;99.90;;;;;;5071510;28;20025;-74
2024/01/26 00:26:23;;;;;;;44.25;29.30;;;10.70;99.90;;;;;;5073211;28;20078;-74
2024/01/26 00:28:49;;;;;;;45.83;29.77;;;10.70;99.90;;;;;;5074024;28;20580;-74
2024/01/26 00:31:16;;;;;;;43.63;31.35;;;10.70;99.90;;;;;;5073540;28;20492;-74
2024/01/26 00:33:42;;;;;;;45.17;30.50;;;10.70;99.90;;;;;;5073598;28;20048;-75
2024/01/26 00:36:08;;;;;;;46.10;30.80;;;10.70;99.90;;;;;;5073298;28;20032;-75
2024/01/26 00:38:33;;;;;;;44.00;31.40;;;10.70;99.90;;;;;;5072331;28;20040;-75
2024/01/26 00:40:59;;;;;;;43.65;30.80;;;10.70;99.90;;;;;;5073003;28;20093;-74
2024/01/26 00:43:25;;;;;;;44.97;30.55;;;10.70;99.90;;;;;;5072773;28;20485;-74
2024/01/26 00:45:51;;;;;;;47.15;30.77;;;10.70;99.90;;;;;;5073113;28;20055;-75
2024/01/26 00:48:16;;;;;;;41.05;31.05;;;10.70;99.90;;;;;;5071499;28;20073;-74
2024/01/26 00:50:42;;;;;;;44.90;31.25;;;10.70;99.90;;;;;;5071807;28;20062;-75
2024/01/26 00:53:08;;;;;;;43.45;29.40;;;10.70;99.90;;;;;;5074910;28;20066;-74
2024/01/26 00:55:34;;;;;;;44.83;30.95;;;10.60;99.90;;;;;;5072910;28;20035;-75
2024/01/26 00:58:00;;;;;;;45.05;31.30;;;10.70;99.90;;;;;;5072827;28;20032;-75
2024/01/26 01:00:26;;;;;;;44.67;31.50;;;10.70;99.90;;;;;;5072004;28;20491;-75
2024/01/26 01:02:53;;;;;;;43.60;31.17;;;10.70;99.90;;;;;;5072502;28;20056;-73
2024/01/26 01:05:19;;;;;;;47.90;32.20;;;10.70;99.90;;;;;;5072464;28;20044;-74
2024/01/26 01:07:45;;;;;;;45.72;32.20;;;10.70;99.90;;;;;;5070021;28;20032;-75
2024/01/26 01:10:11;;;;;;;49.45;34.25;;;10.70;99.90;;;;;;5072980;28;20035;-74
2024/01/26 01:12:41;;;;;;;40.30;30.02;;;10.70;99.90;;;;;;5072649;28;20032;-75
2024/01/26 01:15:11;;;;;;;46.42;32.17;;;10.70;99.90;;;;;;5071482;28;20028;-74
2024/01/26 01:17:41;;;;;;;44.78;32.45;;;10.70;99.90;;;;;;5070894;28;20413;-75
2024/01/26 01:20:08;;;;;;;46.95;31.20;;;10.70;99.90;;;;;;5074663;28;20465;-74
2024/01/26 01:22:35;;;;;;;46.17;31.40;;;10.70;99.90;;;;;;5072044;28;20040;-74
2024/01/26 01:25:01;;;;;;;43.88;30.98;;;10.70;99.90;;;;;;5072146;28;20489;-74
2024/01/26 01:27:27;;;;;;;43.03;30.98;;;10.70;99.90;;;;;;5070559;28;20111;-74
2024/01/26 01:29:52;;;;;;;41.65;29.50;;;10.70;99.90;;;;;;5072113;28;20036;-76
2024/01/26 01:32:18;;;;;;;43.55;30.20;;;10.70;99.90;;;;;;5071989;28;20037;-75
2024/01/26 01:34:44;;;;;;;41.63;29.92;;;10.70;99.90;;;;;;5072121;28;20036;-75
2024/01/26 01:37:09;;;;;;;44.28;29.95;;;10.70;99.90;;;;;;5071925;28;20036;-74
2024/01/26 01:39:36;;;;;;;41.00;29.60;;;10.70;99.90;;;;;;5070725;28;20044;-75
2024/01/26 01:42:03;;;;;;;41.03;29.63;;;10.70;99.90;;;;;;5070620;28;20032;-75
2024/01/26 01:44:30;;;;;;;38.83;28.05;;;10.60;99.90;;;;;;5071922;28;20032;-76
2024/01/26 01:46:56;;;;;;;38.15;28.73;;;10.60;99.90;;;;;;5072813;28;20051;-76
2024/01/26 01:49:22;;;;;;;39.80;28.48;;;10.60;99.90;;;;;;5071205;28;20028;-76
2024/01/26 01:51:51;;;;;;;40.30;29.10;;;10.60;99.90;;;;;;5069609;28;20039;-75
2024/01/26 01:54:18;;;;;;;41.63;30.48;;;10.60;99.90;;;;;;5073661;28;20070;-75
2024/01/26 01:56:44;;;;;;;39.50;28.08;;;10.60;99.90;;;;;;5073472;28;20032;-75
2024/01/26 01:59:11;;;;;;;36.42;27.15;;;10.60;99.90;;;;;;5074022;28;20385;-75
2024/01/26 02:01:37;;;;;;;38.28;27.23;;;10.50;99.90;;;;;;5069888;28;20033;-75
2024/01/26 02:04:04;;;;;;;41.10;28.23;;;10.60;99.90;;;;;;5071757;28;20029;-74
2024/01/26 02:06:30;;;;;;;38.30;26.38;;;10.60;99.90;;;;;;5071809;28;20028;-74
2024/01/26 02:08:56;;;;;;;38.13;26.80;;;10.60;99.90;;;;;;5071782;28;20029;-75
2024/01/26 02:11:23;;;;;;;38.53;27.30;;;10.60;99.90;;;;;;5071560;28;20020;-74
2024/01/26 02:13:48;;;;;;;35.40;26.27;;;10.70;99.90;;;;;;5070691;28;20048;-75
2024/01/26 02:16:14;;;;;;;34.65;26.52;;;10.70;99.90;;;;;;5072400;28;20033;-75
2024/01/26 02:18:40;;;;;;;36.60;26.88;;;10.70;99.90;;;;;;5071383;28;20080;-76
2024/01/26 02:21:06;;;;;;;33.40;25.63;;;10.70;99.90;;;;;;5070007;28;20107;-74
2024/01/26 02:23:31;;;;;;;35.55;24.98;;;10.70;99.90;;;;;;5071372;28;20032;-75
2024/01/26 02:25:57;;;;;;;36.75;26.67;;;10.70;99.90;;;;;;5071554;28;20029;-74
2024/01/26 02:28:23;;;;;;;35.15;25.33;;;10.70;99.90;;;;;;5071517;28;20032;-75
2024/01/26 02:30:49;;;;;;;33.72;24.92;;;10.70;99.90;;;;;;5071906;28;20029;-75
2024/01/26 02:33:14;;;;;;;33.22;24.63;;;10.70;99.90;;;;;;5070040;28;20029;-74
2024/01/26 02:35:40;;;;;;;30.38;23.63;;;10.70;99.90;;;;;;5053498;28;20029;-75
2024/01/26 02:38:05;;;;;;;32.78;24.58;;;10.70;99.90;;;;;;5052437;28;20049;-75
2024/01/26 02:40:31;;;;;;;29.42;23.45;;;10.70;99.90;;;;;;5074774;28;20044;-75
2024/01/26 02:42:57;;;;;;;30.63;23.10;;;10.70;99.90;;;;;;5074776;28;20034;-75
2024/01/26 02:45:25;;;;;;;29.48;23.33;;;10.70;99.90;;;;;;5076955;28;20036;-75
2024/01/26 02:47:50;;;;;;;27.90;21.23;;;10.70;99.90;;;;;;5075453;28;20044;-75
2024/01/26 02:50:16;;;;;;;26.08;20.05;;;10.70;99.90;;;;;;5075248;28;20063;-75
2024/01/26 02:52:41;;;;;;;25.60;20.92;;;10.70;99.90;;;;;;5072278;28;20034;-75
2024/01/26 02:55:07;;;;;;;26.65;19.23;;;10.80;99.90;;;;;;5073911;28;20295;-75
2024/01/26 02:57:33;;;;;;;25.73;19.00;;;10.70;99.90;;;;;;5073544;28;20348;-75
2024/01/26 02:59:58;;;;;;;25.25;18.27;;;10.70;99.90;;;;;;5074866;28;20036;-75
2024/01/26 03:02:24;;;;;;;25.05;18.75;;;10.70;99.90;;;;;;5074761;28;20076;-74
2024/01/26 03:04:49;;;;;;;22.13;18.05;;;10.70;99.90;;;;;;5054778;28;20033;-75
2024/01/26 03:07:15;;;;;;;23.05;16.88;;;10.70;99.90;;;;;;5073302;28;20385;-75
2024/01/26 03:09:41;;;;;;;20.65;15.90;;;10.70;99.90;;;;;;5074956;28;20028;-74
2024/01/26 03:12:06;;;;;;;18.02;15.30;;;10.70;99.90;;;;;;5074569;28;20595;-74
2024/01/26 03:14:32;;;;;;;17.83;14.30;;;10.70;99.90;;;;;;5056677;28;20197;-75
2024/01/26 03:16:58;;;;;;;18.15;14.43;;;10.70;99.90;;;;;;5074482;28;20033;-75
2024/01/26 03:19:23;;;;;;;19.55;13.95;;;10.70;99.90;;;;;;5073058;28;20157;-75
2024/01/26 03:21:49;;;;;;;16.58;13.68;;;10.70;99.90;;;;;;5074519;28;20114;-74
2024/01/26 03:24:15;;;;;;;18.38;12.65;;;10.70;99.90;;;;;;5073640;28;20056;-75
2024/01/26 03:26:40;;;;;;;15.27;12.25;;;10.70;99.90;;;;;;5073687;28;20086;-76
2024/01/26 03:29:06;;;;;;;15.57;12.25;;;10.70;99.90;;;;;;5074309;28;20035;-75
2024/01/26 03:31:32;;;;;;;14.38;10.95;;;10.70;99.90;;;;;;5073376;28;20024;-75
2024/01/26 03:33:58;;;;;;;16.92;11.45;;;10.70;99.90;;;;;;5072973;28;20036;-73
2024/01/26 03:36:24;;;;;;;12.27;9.85;;;10.70;99.90;;;;;;5073834;28;20028;-76
2024/01/26 03:38:49;;;;;;;17.30;10.82;;;10.70;99.90;;;;;;5076534;28;20052;-75
2024/01/26 03:41:15;;;;;;;11.52;9.52;;;10.70;99.90;;;;;;5074406;28;20525;-75
2024/01/26 03:43:40;;;;;;;14.60;10.23;;;10.70;99.90;;;;;;5073801;28;20095;-75
2024/01/26 03:46:06;;;;;;;13.35;9.48;;;10.70;99.90;;;;;;5073767;28;20036;-76
2024/01/26 03:48:32;;;;;;;15.15;10.65;;;10.80;99.90;;;;;;5074201;28;20029;-76
2024/01/26 03:51:00;;;;;;;14.20;10.50;;;10.80;99.90;;;;;;5073078;28;20401;-75
2024/01/26 03:53:26;;;;;;;11.63;9.55;;;10.80;99.90;;;;;;5071914;28;20032;-75
2024/01/26 03:55:55;;;;;;;15.35;9.95;;;10.80;99.90;;;;;;5073467;28;20070;-75
2024/01/26 03:58:21;;;;;;;12.77;9.20;;;10.80;99.90;;;;;;5071843;28;20477;-75
2024/01/26 04:00:47;;;;;;;12.25;9.18;;;10.80;99.90;;;;;;5072612;28;20046;-75
2024/01/26 04:03:12;;;;;;;13.05;8.95;;;10.70;99.90;;;;;;5073715;28;20384;-75
2024/01/26 04:05:39;;;;;;;14.55;8.32;;;10.80;99.90;;;;;;5072739;28;20491;-75
2024/01/26 04:08:05;;;;;;;11.77;7.75;;;10.80;99.90;;;;;;5073532;28;20496;-75
2024/01/26 04:10:31;;;;;;;13.55;7.47;;;10.80;99.90;;;;;;5072202;28;20033;-75
2024/01/26 04:12:57;;;;;;;9.52;7.38;;;10.80;99.90;;;;;;5073424;28;20525;-75
2024/01/26 04:15:23;;;;;;;9.18;7.30;;;10.80;99.90;;;;;;5072218;28;20044;-75
2024/01/26 04:17:49;;;;;;;9.73;7.20;;;10.80;99.90;;;;;;5073074;28;20170;-75
2024/01/26 04:20:14;;;;;;;8.95;6.70;;;10.80;99.90;;;;;;5075893;28;20119;-75
2024/01/26 04:22:42;;;;;;;9.68;7.03;;;10.80;99.90;;;;;;5057101;28;20029;-74
2024/01/26 04:25:09;;;;;;;8.13;6.65;;;10.90;99.90;;;;;;5073456;28;20024;-76
2024/01/26 04:27:34;;;;;;;8.20;6.20;;;10.90;99.90;;;;;;5070104;28;20424;-75
2024/01/26 04:30:00;;;;;;;10.23;6.68;;;10.90;99.90;;;;;;5073598;28;20032;-75
2024/01/26 04:32:26;;;;;;;11.15;6.60;;;10.80;99.90;;;;;;5073698;28;20132;-75
2024/01/26 04:34:51;;;;;;;9.50;6.57;;;10.90;99.90;;;;;;5074266;28;20448;-75
2024/01/26 04:37:17;;;;;;;12.35;7.78;;;10.90;99.90;;;;;;5074228;28;20036;-75
2024/01/26 04:39:43;;;;;;;8.02;6.35;;;10.90;99.90;;;;;;5074227;28;20342;-75
2024/01/26 04:42:08;;;;;;;9.75;6.05;;;10.90;99.90;;;;;;5072103;28;20063;-75
2024/01/26 04:44:35;;;;;;;7.13;6.43;;;10.90;99.90;;;;;;5071921;28;20036;-72
2024/01/26 04:47:01;;;;;;;7.53;6.38;;;10.90;99.90;;;;;;5072816;28;20056;-73
2024/01/26 04:49:27;;;;;;;10.80;6.20;;;10.90;99.90;;;;;;5073096;28;20078;-75
2024/01/26 04:51:52;;;;;;;7.97;5.97;;;10.90;99.90;;;;;;5071707;28;20043;-74
2024/01/26 04:54:18;;;;;;;7.82;5.82;;;10.90;99.90;;;;;;5071393;28;20032;-73
2024/01/26 04:56:44;;;;;;;8.38;5.95;;;10.90;99.90;;;;;;5072648;28;20037;-73
2024/01/26 04:59:09;;;;;;;11.07;6.20;;;11.00;99.90;;;;;;5072797;28;20040;-74
2024/01/26 05:01:35;;;;;;;8.52;6.10;;;11.00;99.90;;;;;;5070585;28;20043;-74
2024/01/26 05:04:03;;;;;;;9.00;6.13;;;11.00;99.90;;;;;;5072894;28;20031;-73
2024/01/26 05:06:29;;;;;;;11.10;6.13;;;11.00;99.90;;;;;;5071216;28;20103;-74
2024/01/26 05:08:55;;;;;;;8.23;6.35;;;11.00;99.90;;;;;;5071494;28;20123;-74
2024/01/26 05:11:20;;;;;;;9.15;6.28;;;11.00;99.90;;;;;;5072943;28;20029;-74
2024/01/26 05:13:46;;;;;;;7.85;5.90;;;11.00;99.90;;;;;;5072487;28;20048;-74
2024/01/26 05:16:12;;;;;;;9.63;6.75;;;11.00;99.90;;;;;;5071095;28;20123;-74
2024/01/26 05:18:38;;;;;;;10.52;6.18;;;11.00;99.90;;;;;;5072074;28;20086;-74
2024/01/26 05:21:04;;;;;;;9.98;6.55;;;11.00;99.90;;;;;;5070592;28;20029;-74
2024/01/26 05:23:30;;;;;;;10.07;6.50;;;11.00;99.90;;;;;;5071975;28;20025;-74
2024/01/26 05:25:56;;;;;;;8.32;6.30;;;11.00;99.90;;;;;;5072046;28;20048;-74
2024/01/26 05:28:22;;;;;;;12.52;7.20;;;11.00;99.90;;;;;;5072534;28;20036;-74
2024/01/26 05:30:47;;;;;;;13.18;7.82;;;11.00;99.90;;;;;;5071878;28;20613;-74
2024/01/26 05:33:13;;;;;;;11.07;7.55;;;11.00;99.90;;;;;;5071915;28;20035;-74
2024/01/26 05:35:39;;;;;;;11.48;7.63;;;10.90;99.90;;;;;;5073524;28;20078;-74
2024/01/26 05:38:04;;;;;;;12.00;7.82;;;11.00;99.90;;;;;;5071577;28;20475;-74
2024/01/26 05:40:30;;;;;;;11.63;7.68;;;11.00;99.90;;;;;;5071794;28;20112;-75
2024/01/26 05:42:56;;;;;;;9.48;7.75;;;11.00;99.90;;;;;;5072430;28;20037;-74
2024/01/26 05:45:21;;;;;;;11.60;7.78;;;11.00;99.90;;;;;;5071778;28;20028;-74
2024/01/26 05:47:47;;;;;;;11.43;8.27;;;11.00;99.90;;;;;;5070739;28;20047;-74
2024/01/26 05:50:15;;;;;;;15.05;9.13;;;11.00;99.90;;;;;;5070348;28;20029;-74
2024/01/26 05:52:41;;;;;;;10.52;8.15;;;11.00;99.90;;;;;;5070394;28;20028;-74
2024/01/26 05:55:07;;;;;;;12.85;8.27;;;11.00;99.90;;;;;;5071980;28;20036;-74
2024/01/26 05:57:34;;;;;;;15.43;9.55;;;11.00;99.90;;;;;;5071557;28;20043;-74
2024/01/26 05:59:59;;;;;;;11.90;8.90;;;11.10;99.90;;;;;;5070349;28;20115;-74
2024/01/26 06:02:26;;;;;;;14.65;8.82;;;11.10;99.90;;;;;;5071400;28;20553;-74
2024/01/26 06:04:51;;;;;;;12.73;9.00;;;11.10;99.90;;;;;;5070654;28;20329;-74
2024/01/26 06:07:17;;;;;;;13.15;9.10;;;11.10;99.90;;;;;;5071538;28;20037;-74
2024/01/26 06:09:43;;;;;;;18.25;9.88;;;11.10;99.90;;;;;;5070298;28;20036;-74
2024/01/26 06:12:08;;;;;;;13.52;10.00;;;11.10;99.90;;;;;;5071572;28;20032;-74
2024/01/26 06:14:35;;;;;;;14.82;10.25;;;11.10;99.90;;;;;;5070392;28;20029;-74
2024/01/26 06:17:01;;;;;;;21.38;11.00;;;11.10;99.90;;;;;;5070918;28;20032;-74
2024/01/26 06:19:27;;;;;;;15.38;10.93;;;11.10;99.90;;;;;;5074352;28;20052;-74
2024/01/26 06:21:52;;;;;;;15.00;10.45;;;11.10;99.90;;;;;;5068763;28;20106;-74
2024/01/26 06:24:18;;;;;;;13.65;10.05;;;11.10;99.90;;;;;;5070054;28;20475;-74
2024/01/26 06:26:44;;;;;;;14.38;10.77;;;11.00;99.90;;;;;;5072827;28;20074;-73
2024/01/26 06:29:09;;;;;;;12.82;10.18;;;11.00;99.90;;;;;;5071256;28;20036;-74
2024/01/26 06:31:35;;;;;;;15.85;9.88;;;11.00;99.90;;;;;;5071469;28;20032;-74
2024/01/26 06:34:01;;;;;;;17.58;11.32;;;11.00;99.90;;;;;;5070227;28;20107;-74
2024/01/26 06:36:26;;;;;;;15.55;10.82;;;11.00;99.90;;;;;;5070231;28;20029;-75
2024/01/26 06:38:52;;;;;;;11.18;9.55;;;10.90;99.90;;;;;;5070482;28;20488;-73
2024/01/26 06:41:18;;;;;;;13.88;9.85;;;10.90;99.90;;;;;;5073176;28;20040;-77
2024/01/26 06:43:50;;;;;;;14.07;10.25;;;10.90;99.90;;;;;;5071967;28;20064;-78
2024/01/26 06:46:19;;;;;;;15.18;9.77;;;10.90;99.90;;;;;;5073431;28;20075;-75
2024/01/26 06:48:44;;;;;;;10.55;9.23;;;10.90;99.90;;;;;;5068531;28;20045;-75
2024/01/26 06:51:10;;;;;;;14.55;9.70;;;10.90;99.90;;;;;;5070415;28;20478;-75
2024/01/26 06:53:35;;;;;;;14.43;9.95;;;10.90;99.90;;;;;;5069778;28;20115;-75
2024/01/26 06:56:01;;;;;;;10.45;9.05;;;10.90;99.90;;;;;;5072362;28;20487;-79
2024/01/26 06:58:27;;;;;;;9.88;8.13;;;10.90;99.90;;;;;;5073996;28;20044;-74
2024/01/26 07:00:52;;;;;;;12.15;9.07;;;10.90;99.90;;;;;;5069855;28;20131;-74
2024/01/26 07:03:18;;;;;;;11.48;8.63;;;10.90;99.90;;;;;;5071011;28;20029;-76
2024/01/26 07:05:44;;;;;;;9.63;8.60;;;10.90;99.90;;;;;;5070572;28;20064;-75
2024/01/26 07:08:10;;;;;;;10.20;8.20;;;10.90;99.90;;;;;;5070640;28;20028;-75
2024/01/26 07:10:35;;;;;;;9.48;8.45;;;10.90;99.90;;;;;;5070083;28;20414;-74
2024/01/26 07:13:01;;;;;;;11.27;7.78;;;10.90;99.90;;;;;;5070085;28;20029;-76
2024/01/26 07:15:27;;;;;;;10.38;8.00;;;10.90;99.90;;;;;;5071427;28;20419;-75
2024/01/26 07:17:52;;;;;;;10.02;8.10;;;10.80;99.90;;;;;;5071432;28;20056;-74
2024/01/26 07:20:20;;;;;;;11.65;8.25;;;10.80;99.90;;;;;;5069614;28;20070;-75
2024/01/26 07:22:45;;;;;;;9.45;7.85;;;10.80;99.90;;;;;;5071837;28;20020;-73
2024/01/26 07:25:18;;;;;;;10.70;8.02;;;10.80;99.90;;;;;;5071160;28;20095;-74
2024/01/26 07:27:45;;;;;;;11.32;8.43;;;10.80;99.90;;;;;;5073549;28;20044;-79
2024/01/26 07:30:11;;;;;;;8.98;7.95;;;10.90;99.90;;;;;;5076924;28;20360;-78
2024/01/26 07:32:37;;;;;;;8.52;7.60;;;10.90;99.90;;;;;;5078204;28;20025;-79
2024/01/26 07:35:03;;;;;;;9.00;7.43;;;10.90;99.90;;;;;;5074604;28;20123;-77
2024/01/26 07:37:29;;;;;;;8.32;7.53;;;10.90;99.90;;;;;;5072884;28;20830;-77
2024/01/26 07:39:55;;;;;;;9.75;7.35;;;10.90;99.90;;;;;;5072541;28;20028;-75
2024/01/26 07:42:20;;;;;;;8.63;7.38;;;10.90;99.90;;;;;;5074025;28;20024;-73
2024/01/26 07:44:46;;;;;;;11.75;8.38;;;10.90;99.90;;;;;;5073642;28;20052;-74
2024/01/26 07:47:11;;;;;;;10.68;7.65;;;11.00;99.90;;;;;;5073052;28;20028;-74
2024/01/26 07:49:37;;;;;;;8.63;7.50;;;11.00;99.90;;;;;;5073337;28;20429;-78
2024/01/26 07:52:03;;;;;;;10.68;7.55;;;11.00;99.90;;;;;;5074977;28;20029;-76
2024/01/26 07:54:29;;;;;;;9.60;8.43;;;11.00;99.90;;;;;;5074112;28;20036;-77
2024/01/26 07:56:54;;;;;;;9.07;7.90;;;11.10;99.90;;;;;;5077949;28;20032;-77
2024/01/26 07:59:20;;;;;;;9.02;7.80;;;11.00;99.90;;;;;;5076818;28;20484;-76
2024/01/26 08:01:46;;;;;;;8.63;7.60;;;11.10;99.90;;;;;;5072308;28;20047;-78
2024/01/26 08:04:12;;;;;;;10.30;8.15;;;11.10;99.90;;;;;;5072328;28;20029;-75
2024/01/26 08:06:37;;;;;;;10.00;8.73;;;11.10;99.90;;;;;;5076892;28;20086;-74
2024/01/26 08:09:04;;;;;;;9.40;7.70;;;11.10;99.90;;;;;;5076489;28;20036;-74
2024/01/26 08:11:30;;;;;;;10.63;8.73;;;11.10;99.90;;;;;;5073405;28;20036;-73
2024/01/26 08:13:56;;;;;;;10.63;9.32;;;11.10;99.90;;;;;;5072273;28;20028;-76
2024/01/26 08:16:22;;;;;;;12.60;9.25;;;11.10;99.90;;;;;;5072106;28;20471;-75
2024/01/26 08:18:47;;;;;;;10.80;9.70;;;11.10;99.90;;;;;;5055055;28;20497;-75
2024/01/26 08:21:13;;;;;;;11.52;10.32;;;11.10;99.90;;;;;;5073201;28;20152;-75
2024/01/26 08:23:39;;;;;;;11.88;9.95;;;11.20;99.90;;;;;;5071583;28;20096;-73
2024/01/26 08:26:05;;;;;;;13.02;10.27;;;11.10;99.90;;;;;;5072472;28;20206;-73
2024/01/26 08:28:31;;;;;;;11.50;10.38;;;11.20;99.90;;;;;;5073340;28;20032;-74
2024/01/26 08:30:56;;;;;;;11.23;10.15;;;11.20;99.90;;;;;;5072114;28;20054;-73
2024/01/26 08:33:22;;;;;;;11.90;9.98;;;11.20;99.90;;;;;;5073119;28;20118;-74
2024/01/26 08:35:47;;;;;;;12.45;10.23;;;11.20;99.90;;;;;;5071630;28;20120;-74
2024/01/26 08:38:13;;;;;;;14.00;10.95;;;11.30;99.90;;;;;;5070132;28;20498;-74
2024/01/26 08:40:39;;;;;;;12.23;11.02;;;11.30;99.90;;;;;;5072473;28;20028;-73
2024/01/26 08:43:04;;;;;;;13.02;11.00;;;11.30;99.90;;;;;;5071290;28;20031;-74
2024/01/26 08:45:30;;;;;;;12.02;10.63;;;11.30;99.90;;;;;;5072566;28;20043;-75
2024/01/26 08:47:56;;;;;;;13.02;10.57;;;11.40;99.90;;;;;;5072511;28;20051;-74
2024/01/26 08:50:21;;;;;;;12.68;11.38;;;11.40;99.90;;;;;;5079927;28;20052;-74
2024/01/26 08:52:47;;;;;;;14.25;11.05;;;11.40;99.90;;;;;;5072370;28;20036;-74
2024/01/26 08:55:13;;;;;;;14.00;11.10;;;11.50;99.90;;;;;;5072765;28;20450;-78
2024/01/26 08:57:39;;;;;;;11.90;10.57;;;11.50;99.90;;;;;;5088580;28;20032;-75
2024/01/26 09:00:08;;;;;;;11.48;10.00;;;11.50;99.90;;;;;;5071156;28;20469;-74
2024/01/26 09:02:35;;;;;;;15.90;11.52;;;11.60;99.90;;;;;;5072929;28;20078;-74
2024/01/26 09:05:00;;;;;;;15.43;10.30;;;11.50;99.90;;;;;;5070954;28;20127;-74
2024/01/26 09:07:26;;;;;;;13.20;10.98;;;11.60;99.90;;;;;;5054439;28;20124;-74
2024/01/26 09:09:52;;;;;;;14.82;10.30;;;11.60;99.90;;;;;;5072325;28;20108;-74
2024/01/26 09:12:18;;;;;;;13.13;9.90;;;11.60;99.90;;;;;;5070807;28;20485;-74
2024/01/26 09:14:44;;;;;;;12.48;9.48;;;11.60;99.90;;;;;;5072310;28;20041;-74
2024/01/26 09:17:09;;;;;;;14.60;7.28;;;11.60;99.90;;;;;;5070175;28;20042;-74
2024/01/26 09:19:35;;;;;;;12.50;6.93;;;11.60;99.90;;;;;;5072181;28;20052;-74
2024/01/26 09:22:03;;;;;;;9.45;6.38;;;11.60;99.90;;;;;;5073458;28;20035;-76
2024/01/26 09:24:28;;;;;;;10.50;6.25;;;11.60;99.90;;;;;;5072818;28;20081;-74
2024/01/26 09:26:55;;;;;;;8.73;5.30;;;11.50;99.90;;;;;;5073011;28;20463;-78
2024/01/26 09:29:22;;;;;;;6.95;3.33;;;11.50;99.90;;;;;;5053571;28;20110;-78
2024/01/26 09:31:50;;;;;;;5.82;2.55;;;11.50;99.90;;;;;;5072842;28;20032;-78
2024/01/26 09:34:16;;;;;;;6.30;2.58;;;11.50;99.90;;;;;;5054380;28;20069;-79
2024/01/26 09:36:41;;;;;;;9.00;2.50;;;11.50;99.90;;;;;;5055763;28;20539;-78
2024/01/26 09:39:07;;;;;;;4.53;0.77;;;11.50;99.90;;;;;;5072129;28;20051;-75
2024/01/26 09:41:33;;;;;;;8.05;1.00;;;11.40;99.90;;;;;;5070259;28;20040;-75
2024/01/26 09:43:59;;;;;;;5.97;1.05;;;11.30;99.90;;;;;;5070840;28;20067;-74
2024/01/26 09:46:25;;;;;;;6.32;0.75;;;11.30;99.90;;;;;;5070585;28;20025;-77
2024/01/26 09:48:55;;;;;;;5.22;0.95;;;11.30;99.90;;;;;;5072917;28;20044;-75
2024/01/26 09:51:22;;;;;;;7.10;0.77;;;11.30;99.90;;;;;;5072063;28;20020;-75
2024/01/26 09:53:51;;;;;;;9.70;0.90;;;11.30;99.90;;;;;;5073306;28;20191;-74
2024/01/26 09:56:18;;;;;;;10.65;0.63;;;11.20;99.90;;;;;;5073647;28;20056;-74
2024/01/26 09:58:44;;;;;;;3.47;0.47;;;11.10;99.90;;;;;;5073417;28;20036;-74
2024/01/26 10:01:15;;;;;;;2.15;0.20;;;10.90;99.90;;;;;;5072615;28;20119;-78
2024/01/26 10:03:41;;;;;;;3.45;0.77;;;10.60;99.90;;;;;;5072934;28;20040;-79
2024/01/26 10:06:10;;;;;;;3.63;0.30;;;10.50;99.90;;;;;;5077669;28;20028;-81
2024/01/26 10:08:41;;;;;;;3.97;0.30;;;10.40;99.90;;;;;;5071933;28;20045;-78
2024/01/26 10:11:06;;;;;;;8.73;0.50;;;10.30;99.90;;;;;;5071316;28;20029;-77
2024/01/26 10:13:32;;;;;;;5.28;0.50;;;10.20;99.90;;;;;;5074538;28;20377;-77
2024/01/26 10:16:11;;;;;;;5.05;0.77;;;10.10;99.90;;;;;;5070034;28;20036;-79
2024/01/26 10:18:44;;;;;;;6.43;0.40;;;10.10;99.90;;;;;;5093528;28;20056;-80
2024/01/26 10:21:11;;;;;;;4.60;0.28;;;10.20;99.90;;;;;;5068661;28;20051;-79
2024/01/26 10:23:36;;;;;;;6.47;0.40;;;10.10;99.90;;;;;;5070151;28;20028;-78
2024/01/26 10:26:02;;;;;;;7.32;0.52;;;10.10;99.90;;;;;;5070639;28;20075;-79
2024/01/26 10:28:28;;;;;;;7.05;0.65;;;10.10;99.90;;;;;;5069851;28;20036;-80
2024/01/26 10:30:57;;;;;;;5.18;0.65;;;10.10;99.90;;;;;;5071626;28;20171;-80
2024/01/26 10:33:24;;;;;;;7.30;0.50;;;10.20;99.90;;;;;;5070928;28;20052;-80
2024/01/26 10:35:58;;;;;;;7.93;1.00;;;10.20;99.90;;;;;;5069377;28;20029;-80
2024/01/26 10:38:25;;;;;;;7.43;0.50;;;10.20;99.90;;;;;;5073738;28;20400;-80
2024/01/26 10:40:58;;;;;;;6.30;0.50;;;10.20;99.90;;;;;;5082632;28;20086;-81
2024/01/26 10:43:24;;;;;;;;;;;10.30;99.90;;;;;;5072873;28;20044;-80
2024/01/26 10:45:51;;;;;;;10.27;1.25;;;10.30;99.90;;;;;;5071417;28;19920;-81
2024/01/26 10:48:17;;;;;;;12.18;0.70;;;10.30;99.90;;;;;;5069796;28;20036;-80
2024/01/26 10:50:45;;;;;;;14.05;1.17;;;10.40;99.90;;;;;;5070001;28;20040;-80
2024/01/26 10:53:12;;;;;;;8.77;0.80;;;10.50;99.90;;;;;;5070402;28;20103;-79
2024/01/26 10:55:40;;;;;;;11.30;0.98;;;10.50;99.90;;;;;;5070297;28;20079;-79
2024/01/26 10:58:07;;;;;;;9.70;0.77;;;10.50;99.90;;;;;;5070559;28;20120;-81
2024/01/26 11:00:33;;;;;;;13.13;1.00;;;10.60;99.90;;;;;;5072797;28;20052;-79
2024/01/26 11:02:59;;;;;;;11.38;0.73;;;10.60;99.90;;;;;;5073201;28;20070;-79
2024/01/26 11:05:25;;;;;;;7.90;0.82;;;10.60;99.90;;;;;;5074768;28;20028;-78
2024/01/26 11:07:52;;;;;;;12.95;1.00;;;10.70;99.90;;;;;;5073394;28;20547;-78
2024/01/26 11:10:24;;;;;;;12.45;1.33;;;10.60;99.90;;;;;;5074347;28;20032;-80
2024/01/26 11:13:01;;;;;;;9.10;0.77;;;10.60;99.90;;;;;;5073434;28;20025;-80
2024/01/26 11:15:28;;;;;;;13.13;1.23;;;10.60;99.90;;;;;;5072072;28;20028;-79
2024/01/26 11:17:58;;;;;;;7.30;0.90;;;10.70;99.90;;;;;;5074763;28;20115;-78
2024/01/26 11:20:31;;;;;;;8.07;0.93;;;10.80;99.90;;;;;;5074481;28;20107;-77
2024/01/26 11:23:09;;;;;;;9.90;1.00;;;10.70;99.90;;;;;;5073441;28;20461;-76
2024/01/26 11:25:35;;;;;;;8.48;1.15;;;10.70;99.90;;;;;;5072688;28;20035;-79
2024/01/26 11:28:03;;;;;;;8.82;1.10;;;10.80;99.90;;;;;;5075030;28;20031;-79
2024/01/26 11:30:29;;;;;;;9.95;0.88;;;10.70;99.90;;;;;;5074641;28;20495;-74
2024/01/26 11:32:55;;;;;;;12.75;1.30;;;10.70;99.90;;;;;;5072836;28;20032;-75
2024/01/26 11:35:21;;;;;;;10.20;0.90;;;10.60;99.90;;;;;;5074119;28;20461;-74
2024/01/26 11:37:49;;;;;;;10.45;1.05;;;10.70;99.90;;;;;;5076749;28;20032;-75
2024/01/26 11:40:17;;;;;;;9.98;0.80;;;10.70;99.90;;;;;;5073918;28;20040;-74
2024/01/26 11:42:42;;;;;;;10.40;1.27;;;10.70;99.90;;;;;;5072905;28;20533;-74
2024/01/26 11:45:24;;;;;;;11.02;2.17;;;10.70;99.90;;;;;;5074351;28;20068;-75
2024/01/26 11:47:50;;;;;;;9.15;0.90;;;10.70;99.90;;;;;;5072840;28;20113;-74
2024/01/26 11:50:16;;;;;;;10.75;1.48;;;10.60;99.10;;;;;;5073859;28;20040;-74
2024/01/26 11:52:41;;;;;;;8.50;1.10;;;10.50;99.00;;;;;;5071590;28;20056;-74
2024/01/26 11:55:07;;;;;;;10.65;1.63;;;10.50;99.60;;;;;;5073794;28;20499;-74
2024/01/26 11:57:33;;;;;;;12.43;0.82;;;10.50;99.00;;;;;;5074157;28;20122;-73
2024/01/26 11:59:59;;;;;;;11.65;1.33;;;10.50;99.10;;;;;;5073984;28;20028;-74
2024/01/26 12:02:25;;;;;;;13.48;1.30;;;10.60;98.60;;;;;;5073636;28;20042;-74
2024/01/26 12:04:51;;;;;;;14.68;1.73;;;10.50;98.50;;;;;;5053631;28;20469;-74
2024/01/26 12:07:16;;;;;;;6.90;1.15;;;10.50;98.40;;;;;;5072718;28;20025;-74
2024/01/26 12:09:42;;;;;;;10.00;1.15;;;10.50;98.50;;;;;;5072038;28;20033;-76
2024/01/26 12:12:10;;;;;;;14.43;1.15;;;10.50;98.30;;;;;;5101773;28;20032;-75
2024/01/26 12:14:36;;;;;;;15.20;1.50;;;10.50;97.70;;;;;;5072220;28;20111;-74
2024/01/26 12:17:02;;;;;;;11.48;1.23;;;10.50;97.90;;;;;;5072132;28;20039;-74
2024/01/26 12:19:28;;;;;;;11.27;1.20;;;10.40;97.40;;;;;;5075625;28;20081;-76
2024/01/26 12:21:53;;;;;;;11.85;1.13;;;10.50;97.40;;;;;;5073496;28;20036;-75
2024/01/26 12:24:21;;;;;;;17.70;2.10;;;10.50;97.10;;;;;;5055322;28;20029;-75
2024/01/26 12:26:47;;;;;;;12.35;1.40;;;10.50;96.60;;;;;;5073538;28;20033;-76
2024/01/26 12:29:12;;;;;;;13.20;1.35;;;10.40;96.80;;;;;;5076620;28;20075;-76
2024/01/26 12:31:38;;;;;;;12.18;1.48;;;10.40;96.80;;;;;;5093235;28;20417;-76